Time;durP1;ratioP1;P1;durP2;ratioP2;P2;SDS_P1;SDS_P2;PMS_P1;PMS_P2;Temp;Humidity;BMP_temperature;BMP_pressure;BME280_temperature;BME280_humidity;BME280_pressure;Samples;Min_cycle;Max_cycle;Signal;HPM_P1;HPM_P2
2022/05/18 00:01:44;;;;;;;2.25;0.60;;;15.70;99.90;;;;;;5015703;28;20048;-67
2022/05/18 00:04:11;;;;;;;2.83;0.30;;;15.70;99.90;;;;;;5025652;28;20534;-67
2022/05/18 00:06:38;;;;;;;2.33;0.20;;;15.60;99.90;;;;;;5026589;28;20054;-67
2022/05/18 00:09:06;;;;;;;6.32;0.60;;;15.70;99.90;;;;;;5030378;28;20021;-67
2022/05/18 00:11:33;;;;;;;1.75;0.35;;;15.90;99.90;;;;;;5021226;28;20034;-68
2022/05/18 00:14:00;;;;;;;6.47;0.68;;;15.90;99.90;;;;;;5015851;28;20112;-67
2022/05/18 00:16:28;;;;;;;2.58;0.40;;;15.90;99.90;;;;;;5016692;28;20034;-68
2022/05/18 00:18:56;;;;;;;3.20;0.40;;;15.90;99.90;;;;;;5014680;28;20068;-66
2022/05/18 00:21:24;;;;;;;2.92;0.40;;;16.00;99.90;;;;;;5010608;28;20033;-67
2022/05/18 00:23:51;;;;;;;2.35;0.50;;;16.00;99.90;;;;;;5029254;28;20025;-67
2022/05/18 00:26:19;;;;;;;4.93;0.45;;;15.90;99.90;;;;;;5020827;28;20042;-67
2022/05/18 00:28:46;;;;;;;2.22;0.65;;;16.00;99.90;;;;;;5027983;28;20029;-67
2022/05/18 00:31:15;;;;;;;4.35;0.70;;;16.20;99.90;;;;;;5031669;28;20026;-67
2022/05/18 00:33:42;;;;;;;3.35;0.40;;;16.30;99.90;;;;;;5023074;28;20021;-67
2022/05/18 00:36:09;;;;;;;2.78;0.30;;;16.10;99.90;;;;;;5022066;28;20029;-66
2022/05/18 00:38:36;;;;;;;3.28;0.85;;;16.30;99.90;;;;;;5025356;28;20037;-66
2022/05/18 00:41:05;;;;;;;2.25;0.50;;;16.50;99.90;;;;;;5030747;28;20037;-66
2022/05/18 00:43:32;;;;;;;2.35;0.68;;;16.40;99.90;;;;;;5018183;28;20115;-66
2022/05/18 00:46:01;;;;;;;2.35;0.63;;;16.40;99.90;;;;;;5020082;28;20038;-66
2022/05/18 00:48:29;;;;;;;4.07;1.02;;;16.40;99.90;;;;;;5021699;28;20029;-66
2022/05/18 00:50:59;;;;;;;3.53;0.65;;;16.60;99.90;;;;;;5019494;28;20041;-66
2022/05/18 00:53:36;;;;;;;3.50;0.70;;;16.60;99.90;;;;;;5016262;28;20046;-66
2022/05/18 00:56:09;;;;;;;3.63;0.30;;;16.60;99.90;;;;;;5018141;28;20099;-66
2022/05/18 00:58:45;;;;;;;5.57;0.50;;;16.70;99.90;;;;;;5017924;28;20116;-65
2022/05/18 01:01:12;;;;;;;3.38;0.45;;;16.60;99.90;;;;;;5031415;28;20604;-67
2022/05/18 01:03:46;;;;;;;2.15;0.30;;;16.80;99.90;;;;;;5025208;28;20018;-66
2022/05/18 01:06:40;;;;;;;3.40;0.35;;;16.90;99.90;;;;;;5032304;28;20494;-67
2022/05/18 01:09:32;;;;;;;4.13;0.52;;;16.90;99.90;;;;;;5022029;28;20033;-66
2022/05/18 01:11:59;;;;;;;3.28;0.77;;;16.90;99.90;;;;;;5015703;28;20030;-66
2022/05/18 01:14:51;;;;;;;2.58;0.52;;;17.00;99.90;;;;;;5023923;28;20024;-66
2022/05/18 01:17:25;;;;;;;5.20;1.05;;;17.00;99.90;;;;;;5017051;28;20128;-66
2022/05/18 01:19:55;;;;;;;2.75;0.30;;;17.10;99.90;;;;;;5022011;28;20018;-66
2022/05/18 01:22:28;;;;;;;5.15;0.40;;;17.00;99.90;;;;;;5029471;28;20144;-67
2022/05/18 01:25:18;;;;;;;5.25;0.52;;;17.10;99.90;;;;;;5031427;28;20499;-66
2022/05/18 01:27:46;;;;;;;3.60;0.60;;;17.30;99.90;;;;;;5016988;28;20061;-66
2022/05/18 01:30:14;;;;;;;1.45;0.47;;;17.40;99.90;;;;;;5024497;28;20022;-67
2022/05/18 01:32:44;;;;;;;3.60;0.45;;;17.40;99.90;;;;;;5024382;28;20514;-67
2022/05/18 01:35:14;;;;;;;3.10;0.82;;;17.40;99.90;;;;;;5018365;28;20037;-68
2022/05/18 01:37:42;;;;;;;4.63;1.05;;;17.30;99.50;;;;;;5022368;28;20091;-67
2022/05/18 01:40:42;;;;;;;0.85;0.20;;;17.40;99.60;;;;;;5022029;28;20036;-67
2022/05/18 01:43:35;;;;;;;5.85;0.82;;;17.50;99.60;;;;;;5015630;28;20044;-68
2022/05/18 01:46:05;;;;;;;2.08;0.40;;;17.60;99.80;;;;;;5018673;28;20029;-67
2022/05/18 01:48:37;;;;;;;3.45;0.47;;;17.80;98.70;;;;;;5019764;28;20438;-66
2022/05/18 01:51:06;;;;;;;3.53;0.20;;;17.70;99.60;;;;;;5021878;28;20072;-67
2022/05/18 01:53:34;;;;;;;1.05;0.20;;;17.90;99.10;;;;;;5020805;28;20781;-67
2022/05/18 01:56:02;;;;;;;2.65;0.57;;;17.90;99.20;;;;;;5030056;28;20025;-67
2022/05/18 01:58:29;;;;;;;4.28;0.68;;;18.40;99.70;;;;;;5017811;28;20061;-67
2022/05/18 02:00:57;;;;;;;2.92;0.30;;;18.70;99.20;;;;;;5025901;28;20049;-66
2022/05/18 02:03:24;;;;;;;3.70;0.50;;;18.80;98.90;;;;;;5018576;28;20029;-66
2022/05/18 02:05:52;;;;;;;1.52;0.30;;;18.90;99.10;;;;;;5020054;28;20049;-67
2022/05/18 02:08:22;;;;;;;4.82;0.40;;;19.50;98.90;;;;;;5027675;28;20103;-66
2022/05/18 02:10:50;;;;;;;3.30;0.60;;;19.00;97.90;;;;;;5033346;28;20100;-66
2022/05/18 02:13:17;;;;;;;1.52;0.38;;;18.70;98.00;;;;;;5017711;28;20093;-67
2022/05/18 02:15:45;;;;;;;2.90;0.30;;;18.60;98.40;;;;;;5019347;28;20397;-67
2022/05/18 02:18:12;;;;;;;4.05;0.60;;;19.00;99.10;;;;;;5024335;28;20108;-67
2022/05/18 02:20:40;;;;;;;1.30;0.30;;;19.20;98.50;;;;;;5021971;28;20394;-67
2022/05/18 02:23:08;;;;;;;4.07;0.32;;;18.90;97.60;;;;;;5026865;28;20029;-66
2022/05/18 02:25:37;;;;;;;1.05;0.20;;;19.20;98.10;;;;;;5024066;28;20091;-67
2022/05/18 02:28:05;;;;;;;1.95;0.30;;;19.20;98.20;;;;;;5014846;28;20021;-67
2022/05/18 02:30:33;;;;;;;3.22;0.88;;;19.10;98.20;;;;;;5017659;28;20041;-67
2022/05/18 02:33:01;;;;;;;1.02;0.30;;;18.90;98.40;;;;;;5023027;28;20437;-67
2022/05/18 02:35:28;;;;;;;3.78;0.40;;;19.40;98.80;;;;;;5019710;28;20054;-67
2022/05/18 02:37:56;;;;;;;2.55;0.22;;;19.50;97.90;;;;;;5020509;28;20021;-67
2022/05/18 02:40:23;;;;;;;2.45;0.43;;;19.40;97.50;;;;;;5019948;28;20022;-67
2022/05/18 02:42:51;;;;;;;0.70;0.20;;;19.70;96.80;;;;;;5025011;28;20064;-67
2022/05/18 02:45:18;;;;;;;2.67;0.30;;;19.50;96.80;;;;;;5021811;28;20029;-67
2022/05/18 02:47:45;;;;;;;2.22;0.75;;;19.30;97.40;;;;;;5023232;28;20032;-67
2022/05/18 02:50:13;;;;;;;1.05;0.40;;;19.50;96.90;;;;;;5017481;28;20118;-67
2022/05/18 02:52:40;;;;;;;2.53;0.40;;;19.70;97.10;;;;;;5018842;28;20041;-67
2022/05/18 02:57:55;;;;;;;1.98;0.20;;;19.70;96.30;;;;;;5025041;28;20033;-67
2022/05/18 03:00:23;;;;;;;2.30;0.20;;;19.50;96.00;;;;;;5026646;28;20490;-67
2022/05/18 03:02:50;;;;;;;2.17;0.40;;;19.50;96.60;;;;;;5023719;28;20032;-67
2022/05/18 03:05:18;;;;;;;1.63;0.20;;;19.40;96.00;;;;;;5019538;28;20025;-67
2022/05/18 03:07:45;;;;;;;0.98;0.10;;;19.70;96.50;;;;;;5014298;28;20025;-67
2022/05/18 03:10:16;;;;;;;0.77;0.20;;;19.70;96.20;;;;;;5016129;28;20032;-67
2022/05/18 03:12:44;;;;;;;4.93;1.88;;;19.70;96.50;;;;;;5034559;28;20033;-67
2022/05/18 03:15:13;;;;;;;0.68;0.20;;;20.10;97.00;;;;;;5022802;28;20029;-69
2022/05/18 03:17:41;;;;;;;1.25;0.10;;;20.00;96.20;;;;;;5021254;28;20164;-67
2022/05/18 03:23:33;;;;;;;1.08;0.30;;;19.70;95.90;;;;;;5020030;28;20029;-66
2022/05/18 03:25:41;;;;;;;2.28;0.10;;;20.00;95.80;;;;;;5021873;28;20121;-67
2022/05/18 03:28:08;;;;;;;1.65;0.30;;;19.70;96.00;;;;;;5017538;28;20026;-67
2022/05/18 03:30:35;;;;;;;0.52;0.03;;;19.60;95.90;;;;;;5018979;28;20034;-66
2022/05/18 03:33:03;;;;;;;2.92;0.17;;;19.60;95.90;;;;;;5018542;28;20060;-66
2022/05/18 03:35:31;;;;;;;1.08;0.10;;;19.60;95.90;;;;;;5017769;28;20030;-66
2022/05/18 03:37:58;;;;;;;0.70;0.15;;;19.50;96.10;;;;;;5018724;28;20029;-66
2022/05/18 03:40:26;;;;;;;2.83;0.25;;;19.50;95.90;;;;;;5022032;28;20030;-67
2022/05/18 03:42:53;;;;;;;0.88;0.10;;;19.40;95.70;;;;;;5016115;28;20025;-67
2022/05/18 03:45:20;;;;;;;0.98;0.10;;;19.40;96.30;;;;;;5030368;28;20120;-67
2022/05/18 03:47:48;;;;;;;1.10;0.20;;;19.50;96.10;;;;;;5026774;28;20481;-67
2022/05/18 03:50:16;;;;;;;3.63;0.43;;;19.50;96.20;;;;;;5021266;28;20022;-67
2022/05/18 03:52:43;;;;;;;3.47;0.47;;;19.40;96.20;;;;;;5017847;28;20097;-67
2022/05/18 03:55:11;;;;;;;0.75;0.20;;;19.50;96.50;;;;;;5015439;28;20029;-67
2022/05/18 03:57:39;;;;;;;2.90;0.30;;;19.70;96.60;;;;;;5025075;28;20037;-66
2022/05/18 04:00:07;;;;;;;0.95;0.20;;;19.50;96.50;;;;;;5031810;28;20037;-68
2022/05/18 04:02:35;;;;;;;5.43;0.50;;;19.40;96.30;;;;;;5023182;28;20030;-68
2022/05/18 04:05:02;;;;;;;2.83;0.10;;;19.20;96.50;;;;;;5023510;28;20502;-67
2022/05/18 04:07:29;;;;;;;1.33;0.30;;;19.20;96.50;;;;;;5022322;28;20560;-68
2022/05/18 04:09:56;;;;;;;1.45;0.10;;;19.30;96.50;;;;;;5024037;28;20408;-67
2022/05/18 04:12:24;;;;;;;1.48;0.10;;;19.30;96.30;;;;;;5024767;28;20037;-67
2022/05/18 04:14:54;;;;;;;2.17;0.68;;;19.20;96.80;;;;;;5017452;28;20533;-67
2022/05/18 04:17:25;;;;;;;6.90;0.25;;;19.00;96.80;;;;;;5019537;28;20036;-67
2022/05/18 04:19:53;;;;;;;1.10;0.20;;;18.90;96.80;;;;;;5020451;28;20030;-67
2022/05/18 04:22:23;;;;;;;3.60;0.17;;;19.00;96.90;;;;;;5016681;28;20056;-67
2022/05/18 04:24:52;;;;;;;1.90;0.25;;;18.90;97.10;;;;;;5014860;28;20034;-67
2022/05/18 04:27:19;;;;;;;0.88;0.20;;;19.10;97.10;;;;;;5018346;28;20036;-66
2022/05/18 04:29:46;;;;;;;6.45;0.55;;;19.10;96.60;;;;;;5025722;28;20052;-67
2022/05/18 04:32:14;;;;;;;2.78;0.17;;;19.10;96.90;;;;;;5025059;28;20025;-67
2022/05/18 04:34:42;;;;;;;0.65;0.20;;;18.90;96.80;;;;;;5024620;28;20026;-67
2022/05/18 04:37:09;;;;;;;1.58;0.15;;;18.90;97.30;;;;;;5024894;28;20018;-66
2022/05/18 04:39:36;;;;;;;1.73;0.15;;;18.90;97.30;;;;;;5018850;28;20451;-67
2022/05/18 04:42:04;;;;;;;1.52;0.30;;;19.10;97.60;;;;;;5019702;28;20025;-67
2022/05/18 04:44:31;;;;;;;2.67;0.38;;;19.10;97.00;;;;;;5012362;28;20517;-66
2022/05/18 04:46:59;;;;;;;0.75;0.30;;;19.20;96.90;;;;;;5015006;28;20033;-67
2022/05/18 04:49:29;;;;;;;3.00;0.20;;;19.20;97.10;;;;;;5029773;28;20037;-66
2022/05/18 04:51:56;;;;;;;3.78;0.20;;;19.30;97.00;;;;;;5022176;28;20045;-66
2022/05/18 04:54:24;;;;;;;5.25;0.30;;;19.40;97.20;;;;;;5011467;28;20022;-67
2022/05/18 04:56:51;;;;;;;1.10;0.08;;;19.30;97.20;;;;;;5022848;28;20018;-67
2022/05/18 04:59:18;;;;;;;2.40;0.10;;;19.40;97.30;;;;;;5011785;28;20028;-67
2022/05/18 05:01:45;;;;;;;0.70;0.00;;;19.40;97.20;;;;;;5015669;28;20030;-67
2022/05/18 05:04:13;;;;;;;1.25;0.30;;;19.20;97.20;;;;;;5011251;28;20018;-66
2022/05/18 05:06:43;;;;;;;1.70;0.10;;;19.20;97.40;;;;;;5010670;28;20747;-67
2022/05/18 05:09:11;;;;;;;1.30;0.20;;;19.30;97.10;;;;;;5027848;28;20025;-66
2022/05/18 05:11:38;;;;;;;2.33;0.40;;;19.30;96.90;;;;;;5028502;28;20399;-67
2022/05/18 05:14:06;;;;;;;2.28;0.10;;;19.10;97.20;;;;;;5029981;28;20036;-67
2022/05/18 05:16:34;;;;;;;0.85;0.20;;;18.90;97.80;;;;;;5023203;28;20474;-67
2022/05/18 05:19:02;;;;;;;1.83;0.45;;;18.80;98.00;;;;;;5029484;28;20026;-67
2022/05/18 05:21:29;;;;;;;0.80;0.40;;;18.70;97.90;;;;;;5029402;28;20033;-67
2022/05/18 05:23:57;;;;;;;4.13;0.15;;;18.50;98.20;;;;;;5012330;28;20490;-66
2022/05/18 05:26:24;;;;;;;0.82;0.13;;;18.40;98.50;;;;;;5011967;28;20022;-66
2022/05/18 05:28:51;;;;;;;2.20;0.20;;;18.30;98.30;;;;;;5017221;28;20056;-66
2022/05/18 05:31:18;;;;;;;2.40;0.30;;;18.20;98.70;;;;;;5028655;28;20049;-67
2022/05/18 05:33:46;;;;;;;2.40;0.30;;;18.10;98.40;;;;;;5017686;28;20022;-66
2022/05/18 05:36:13;;;;;;;2.83;0.15;;;18.00;98.50;;;;;;5028044;28;20029;-66
2022/05/18 05:38:40;;;;;;;1.58;0.28;;;18.00;98.40;;;;;;5018563;28;20038;-66
2022/05/18 05:41:08;;;;;;;3.03;0.15;;;18.00;98.50;;;;;;5018553;28;20054;-67
2022/05/18 05:43:35;;;;;;;2.13;0.30;;;17.90;98.40;;;;;;5015099;28;20030;-67
2022/05/18 05:46:09;;;;;;;1.33;0.20;;;18.00;98.50;;;;;;5015644;28;20368;-66
2022/05/18 05:48:37;;;;;;;1.02;0.35;;;18.00;98.10;;;;;;5016536;28;20033;-66
2022/05/18 05:51:05;;;;;;;1.88;0.10;;;17.90;97.90;;;;;;5017751;28;20033;-67
2022/05/18 05:53:33;;;;;;;2.58;0.20;;;18.00;98.10;;;;;;5018447;28;20046;-67
2022/05/18 05:56:00;;;;;;;3.10;0.47;;;17.90;98.30;;;;;;5028361;28;20124;-67
2022/05/18 05:58:32;;;;;;;2.03;0.17;;;17.90;98.20;;;;;;5029757;28;20022;-67
2022/05/18 06:01:00;;;;;;;1.60;0.30;;;17.90;98.20;;;;;;5028280;28;20315;-67
2022/05/18 06:03:28;;;;;;;3.47;0.52;;;17.90;97.90;;;;;;5027214;28;20485;-67
2022/05/18 06:05:58;;;;;;;2.88;0.25;;;18.00;98.00;;;;;;5030827;28;20042;-67
2022/05/18 06:08:25;;;;;;;2.38;0.20;;;18.00;97.80;;;;;;5031404;28;20358;-67
2022/05/18 06:10:54;;;;;;;2.55;0.10;;;17.90;97.80;;;;;;5032352;28;20108;-67
2022/05/18 06:13:21;;;;;;;1.40;0.20;;;17.90;98.10;;;;;;5023938;28;20113;-67
2022/05/18 06:15:49;;;;;;;1.42;0.30;;;18.00;97.60;;;;;;5020232;28;20049;-66
2022/05/18 06:18:16;;;;;;;1.38;0.17;;;18.00;97.40;;;;;;5019873;28;20025;-67
2022/05/18 06:20:45;;;;;;;0.77;0.10;;;18.00;97.40;;;;;;5030625;28;20087;-67
2022/05/18 06:23:12;;;;;;;1.65;0.22;;;18.00;97.10;;;;;;5016864;28;20474;-67
2022/05/18 06:25:40;;;;;;;0.77;0.10;;;17.90;97.40;;;;;;5021182;28;20061;-66
2022/05/18 06:28:08;;;;;;;2.58;0.20;;;17.80;97.70;;;;;;5023509;28;20443;-66
2022/05/18 06:30:38;;;;;;;2.63;0.15;;;17.70;97.90;;;;;;5023832;28;20033;-66
2022/05/18 06:33:05;;;;;;;3.00;0.70;;;17.60;97.80;;;;;;5020857;28;20079;-66
2022/05/18 06:35:33;;;;;;;0.68;0.10;;;17.60;97.80;;;;;;5025724;28;20042;-67
2022/05/18 06:38:08;;;;;;;1.17;0.13;;;17.50;97.80;;;;;;5024664;28;20053;-67
2022/05/18 06:43:24;;;;;;;3.88;0.30;;;17.40;98.10;;;;;;5017792;28;20094;-67
2022/05/18 06:45:51;;;;;;;1.27;0.30;;;17.40;98.00;;;;;;5028802;28;20032;-67
2022/05/18 06:48:19;;;;;;;0.68;0.30;;;17.40;98.00;;;;;;5026605;28;20038;-66
2022/05/18 06:50:46;;;;;;;1.38;0.28;;;17.30;98.10;;;;;;5031728;28;20084;-66
2022/05/18 06:53:13;;;;;;;1.00;0.40;;;17.30;98.10;;;;;;5024616;28;20765;-65
2022/05/18 06:55:41;;;;;;;3.25;0.47;;;17.20;98.00;;;;;;5024891;28;20065;-65
2022/05/18 06:58:08;;;;;;;2.08;0.25;;;17.30;98.10;;;;;;5023384;28;20552;-65
2022/05/18 07:00:35;;;;;;;3.70;0.38;;;17.20;98.00;;;;;;5032216;28;20549;-66
2022/05/18 07:03:03;;;;;;;2.03;0.50;;;17.10;98.10;;;;;;5024525;28;20058;-66
2022/05/18 07:05:31;;;;;;;1.80;0.15;;;17.10;98.20;;;;;;5021542;28;20026;-66
2022/05/18 07:07:59;;;;;;;2.90;0.63;;;17.10;97.80;;;;;;5022523;28;20025;-66
2022/05/18 07:10:28;;;;;;;1.00;0.25;;;17.10;98.00;;;;;;5024163;28;20858;-66
2022/05/18 07:12:55;;;;;;;2.60;0.22;;;17.10;98.30;;;;;;5018846;28;20112;-66
2022/05/18 07:15:22;;;;;;;1.35;0.20;;;17.00;98.00;;;;;;5015085;28;20458;-66
2022/05/18 07:17:50;;;;;;;1.88;0.20;;;17.00;98.00;;;;;;5016343;28;20030;-66
2022/05/18 07:20:17;;;;;;;4.22;0.63;;;17.00;97.90;;;;;;5019248;28;20017;-66
2022/05/18 07:22:45;;;;;;;1.13;0.20;;;17.00;97.80;;;;;;5028932;28;20478;-66
2022/05/18 07:25:13;;;;;;;2.88;0.20;;;17.00;98.00;;;;;;5022823;28;20022;-66
2022/05/18 07:27:41;;;;;;;1.55;0.20;;;17.00;98.10;;;;;;5020257;28;20880;-66
2022/05/18 07:30:09;;;;;;;0.90;0.17;;;16.90;98.00;;;;;;5015807;28;20026;-66
2022/05/18 07:32:37;;;;;;;4.05;0.30;;;16.90;98.00;;;;;;5024373;28;20126;-66
2022/05/18 07:35:05;;;;;;;3.08;0.30;;;16.90;98.00;;;;;;5025450;28;20032;-66
2022/05/18 07:37:32;;;;;;;1.20;0.30;;;16.80;98.10;;;;;;5024518;28;20025;-66
2022/05/18 07:39:59;;;;;;;1.08;0.55;;;16.80;98.10;;;;;;5025276;28;20025;-66
2022/05/18 07:42:27;;;;;;;4.00;0.70;;;16.80;98.20;;;;;;5021142;28;20026;-66
2022/05/18 07:44:54;;;;;;;3.70;1.05;;;16.80;98.30;;;;;;5020986;28;20025;-66
2022/05/18 07:47:31;;;;;;;2.50;0.90;;;16.80;98.10;;;;;;5021837;28;20115;-66
2022/05/18 07:49:59;;;;;;;3.33;1.08;;;16.70;98.40;;;;;;5016237;28;20394;-66
2022/05/18 07:52:26;;;;;;;1.23;0.60;;;16.70;98.50;;;;;;5020667;28;20049;-66
2022/05/18 07:54:55;;;;;;;4.82;1.20;;;16.60;98.80;;;;;;5030268;28;20025;-66
2022/05/18 07:57:22;;;;;;;2.25;0.80;;;16.60;98.80;;;;;;5028555;28;20104;-66
2022/05/18 07:59:58;;;;;;;6.22;2.75;;;16.50;99.20;;;;;;5024135;28;20532;-66
2022/05/18 08:02:30;;;;;;;4.70;2.80;;;16.50;99.20;;;;;;5024592;28;20474;-66
2022/05/18 08:04:57;;;;;;;2.83;1.00;;;16.40;99.30;;;;;;5019653;28;20025;-66
2022/05/18 08:07:25;;;;;;;4.55;2.35;;;16.50;99.20;;;;;;5029556;28;20057;-66
2022/05/18 08:15:23;;;;;;;4.28;0.77;;;16.40;99.90;;;;;;5024899;28;20029;-66
2022/05/18 08:17:51;;;;;;;1.52;0.60;;;16.40;99.90;;;;;;5024001;28;20034;-66
2022/05/18 08:20:21;;;;;;;4.63;0.63;;;16.40;99.90;;;;;;5027563;28;20032;-67
2022/05/18 08:22:48;;;;;;;3.00;0.93;;;16.30;99.90;;;;;;5015716;28;20026;-66
2022/05/18 08:25:16;;;;;;;3.22;1.02;;;16.30;99.90;;;;;;5026017;28;20034;-66
2022/05/18 08:27:46;;;;;;;2.55;0.70;;;16.30;99.90;;;;;;5012453;28;20053;-66
2022/05/18 08:30:17;;;;;;;4.63;0.80;;;16.30;99.90;;;;;;5015760;28;20103;-66
2022/05/18 08:32:45;;;;;;;3.67;0.60;;;16.30;99.90;;;;;;5013386;28;20026;-66
2022/05/18 08:35:16;;;;;;;4.93;0.75;;;16.20;99.90;;;;;;5016037;28;20058;-66
2022/05/18 08:37:46;;;;;;;2.70;0.63;;;16.20;99.90;;;;;;5022348;28;20080;-66
2022/05/18 08:40:29;;;;;;;3.30;0.73;;;16.20;99.90;;;;;;5016695;28;20028;-66
2022/05/18 08:43:03;;;;;;;4.82;0.80;;;16.20;99.90;;;;;;5022759;28;20060;-66
2022/05/18 08:45:36;;;;;;;5.05;0.75;;;16.10;99.90;;;;;;5023254;28;20025;-67
2022/05/18 08:48:58;;;;;;;2.53;0.95;;;16.20;99.90;;;;;;5016537;28;20429;-67
2022/05/18 08:51:38;;;;;;;5.60;1.35;;;16.20;99.90;;;;;;5021225;28;20385;-67
2022/05/18 08:54:24;;;;;;;3.00;1.20;;;16.20;99.90;;;;;;5024099;28;20032;-67
2022/05/18 08:56:55;;;;;;;2.20;1.30;;;16.10;99.90;;;;;;5021378;28;20033;-66
2022/05/18 08:59:36;;;;;;;6.30;2.03;;;16.10;99.90;;;;;;5024151;28;20022;-67
2022/05/18 09:02:16;;;;;;;9.50;7.72;;;16.10;99.90;;;;;;5027547;28;20433;-67
2022/05/18 09:05:01;;;;;;;8.05;5.50;;;16.00;99.90;;;;;;5022997;28;20505;-67
2022/05/18 09:07:36;;;;;;;3.00;1.30;;;16.00;99.90;;;;;;5026392;28;20036;-67
2022/05/18 09:10:13;;;;;;;3.72;0.82;;;16.00;99.90;;;;;;5025004;28;20072;-67
2022/05/18 09:12:44;;;;;;;3.75;0.70;;;16.00;99.90;;;;;;5018524;28;20026;-65
2022/05/18 09:15:14;;;;;;;2.65;0.40;;;16.10;99.80;;;;;;5024596;28;20026;-65
2022/05/18 09:18:02;;;;;;;2.28;0.60;;;16.20;99.90;;;;;;5024703;28;20018;-66
2022/05/18 09:20:41;;;;;;;2.33;0.70;;;16.10;99.90;;;;;;5027617;28;20025;-65
2022/05/18 09:23:11;;;;;;;4.30;0.55;;;16.10;99.90;;;;;;5017816;28;20057;-66
2022/05/18 09:25:54;;;;;;;5.80;0.88;;;16.00;99.90;;;;;;5023436;28;20371;-66
2022/05/18 09:28:38;;;;;;;2.38;0.70;;;16.00;99.90;;;;;;5021272;28;20030;-66
2022/05/18 09:31:14;;;;;;;;;;;16.00;99.90;;;;;;5031996;28;20457;-67
2022/05/18 09:33:47;;;;;;;1.52;0.70;;;15.90;99.90;;;;;;5024498;28;19916;-66
2022/05/18 09:36:30;;;;;;;2.77;0.70;;;16.00;99.90;;;;;;5020805;28;20112;-66
2022/05/18 09:39:13;;;;;;;3.08;0.40;;;16.00;99.60;;;;;;5016030;28;20041;-66
2022/05/18 09:42:07;;;;;;;3.77;0.20;;;15.90;99.80;;;;;;5018688;28;20041;-66
2022/05/18 09:45:04;;;;;;;1.45;0.52;;;15.80;99.60;;;;;;5023125;28;20533;-66
2022/05/18 09:47:54;;;;;;;0.90;0.30;;;15.80;99.70;;;;;;5029513;28;20199;-67
2022/05/18 09:50:21;;;;;;;4.57;1.45;;;15.80;99.60;;;;;;5028788;28;20402;-66
2022/05/18 09:52:50;;;;;;;1.05;0.20;;;15.80;99.60;;;;;;5020553;28;20041;-65
2022/05/18 09:55:24;;;;;;;1.75;0.40;;;15.70;99.50;;;;;;5033223;28;20018;-66
2022/05/18 09:58:03;;;;;;;0.60;0.20;;;15.70;99.20;;;;;;5023220;28;20109;-66
2022/05/18 10:00:34;;;;;;;2.10;0.13;;;15.70;99.60;;;;;;5027856;28;20580;-66
2022/05/18 10:09:11;;;;;;;1.08;0.40;;;15.70;99.30;;;;;;5016442;28;20118;-66
2022/05/18 10:11:39;;;;;;;2.30;0.35;;;15.60;99.30;;;;;;5014226;28;20411;-66
2022/05/18 10:14:10;;;;;;;2.15;0.15;;;15.60;99.40;;;;;;5034186;28;20409;-66
2022/05/18 10:16:48;;;;;;;6.82;0.40;;;15.50;99.70;;;;;;5018301;28;20112;-66
2022/05/18 10:19:43;;;;;;;1.48;0.52;;;15.50;99.50;;;;;;5017277;28;20259;-66
2022/05/18 10:22:13;;;;;;;1.60;0.30;;;15.50;99.80;;;;;;5022958;28;20041;-66
2022/05/18 10:24:53;;;;;;;1.52;0.15;;;15.40;99.90;;;;;;5014388;28;20030;-66
2022/05/18 10:27:27;;;;;;;1.40;0.20;;;15.40;99.90;;;;;;5021719;28;20312;-66
2022/05/18 10:30:18;;;;;;;1.23;0.20;;;15.40;99.90;;;;;;5024990;28;20032;-66
2022/05/18 10:33:19;;;;;;;1.90;0.25;;;15.30;99.90;;;;;;5027988;28;20112;-66
2022/05/18 10:35:51;;;;;;;2.65;0.20;;;15.30;99.90;;;;;;5043243;28;20035;-66
2022/05/18 10:38:29;;;;;;;2.33;0.28;;;15.30;99.80;;;;;;5019667;28;20486;-66
2022/05/18 10:41:12;;;;;;;1.88;0.10;;;15.30;99.70;;;;;;5028693;28;20415;-66
2022/05/18 10:43:59;;;;;;;1.75;0.10;;;15.30;99.70;;;;;;5017347;28;20034;-66
2022/05/18 10:46:38;;;;;;;0.75;0.20;;;15.30;99.70;;;;;;5013060;28;20117;-66
2022/05/18 10:49:21;;;;;;;1.25;0.30;;;15.30;99.70;;;;;;5026444;28;20044;-66
2022/05/18 10:51:49;;;;;;;2.83;0.30;;;15.20;99.90;;;;;;5024813;28;20046;-66
2022/05/18 10:54:25;;;;;;;0.98;0.30;;;15.20;99.80;;;;;;5024209;28;20053;-67
2022/05/18 10:57:10;;;;;;;0.70;0.10;;;15.10;99.90;;;;;;5014956;28;20032;-66
2022/05/18 11:00:00;;;;;;;1.52;0.10;;;15.10;99.90;;;;;;5012951;28;20493;-66
2022/05/18 11:02:46;;;;;;;3.50;0.38;;;15.10;99.90;;;;;;5023128;28;20029;-66
2022/05/18 11:05:20;;;;;;;1.23;0.30;;;15.00;99.90;;;;;;5027290;28;20033;-66
2022/05/18 11:07:47;;;;;;;;;;;15.00;99.90;;;;;;5029695;28;20034;-66
2022/05/18 11:10:14;;;;;;;1.30;0.20;;;14.90;99.90;;;;;;5029561;28;19909;-66
2022/05/18 11:13:11;;;;;;;1.77;0.43;;;14.90;99.90;;;;;;5020067;28;20025;-66
2022/05/18 11:15:50;;;;;;;1.13;0.20;;;14.70;99.90;;;;;;5022549;28;20033;-68
2022/05/18 11:18:43;;;;;;;3.17;0.30;;;14.80;99.90;;;;;;5016429;28;20032;-65
2022/05/18 11:21:29;;;;;;;1.45;0.30;;;14.80;99.90;;;;;;5026546;28;20033;-67
2022/05/18 11:24:17;;;;;;;1.30;0.13;;;14.80;99.90;;;;;;5025094;28;20033;-66
2022/05/18 11:26:53;;;;;;;1.98;0.28;;;14.80;99.90;;;;;;5018470;28;20035;-65
2022/05/18 11:29:46;;;;;;;2.30;0.32;;;14.70;99.90;;;;;;5022869;28;20025;-66
2022/05/18 11:32:45;;;;;;;2.35;0.55;;;14.70;99.90;;;;;;5018692;28;20025;-66
2022/05/18 11:35:24;;;;;;;0.82;0.30;;;14.60;99.90;;;;;;5020225;28;20100;-66
2022/05/18 11:38:03;;;;;;;2.10;0.38;;;14.60;99.90;;;;;;5021439;28;20022;-66
2022/05/18 11:40:48;;;;;;;0.90;0.20;;;14.50;99.90;;;;;;5018875;28;20024;-66
2022/05/18 11:43:35;;;;;;;0.70;0.20;;;14.50;99.90;;;;;;5018731;28;20072;-66
2022/05/18 11:46:21;;;;;;;1.02;0.20;;;14.60;99.90;;;;;;5019455;28;20033;-66
2022/05/18 11:48:54;;;;;;;1.20;0.30;;;14.50;99.90;;;;;;5018960;28;20032;-66
2022/05/18 11:51:40;;;;;;;0.70;0.20;;;14.40;99.90;;;;;;5017431;28;20384;-66
2022/05/18 11:54:37;;;;;;;1.58;0.38;;;14.40;99.90;;;;;;5021957;28;20061;-66
2022/05/18 11:57:14;;;;;;;1.40;0.20;;;14.40;99.90;;;;;;5022730;28;20036;-66
2022/05/18 11:59:57;;;;;;;2.20;0.40;;;14.40;99.90;;;;;;5021062;28;20057;-66
2022/05/18 12:02:52;;;;;;;4.22;0.32;;;14.30;99.90;;;;;;5015888;28;20034;-66
2022/05/18 12:05:43;;;;;;;0.82;0.50;;;14.30;99.90;;;;;;5022440;28;20036;-66
2022/05/18 12:08:27;;;;;;;3.00;0.22;;;14.30;99.90;;;;;;5021509;28;20047;-66
2022/05/18 12:11:10;;;;;;;8.20;0.32;;;14.20;99.90;;;;;;5015157;28;20022;-66
2022/05/18 12:14:14;;;;;;;2.60;0.22;;;14.10;99.90;;;;;;5021692;28;20021;-66
2022/05/18 12:16:48;;;;;;;2.30;0.22;;;14.10;99.90;;;;;;5019086;28;20033;-66
2022/05/18 12:19:21;;;;;;;0.65;0.40;;;14.00;99.90;;;;;;5017792;28;20029;-66
2022/05/18 12:22:03;;;;;;;0.90;0.30;;;14.00;99.90;;;;;;5023046;28;20018;-66
2022/05/18 12:24:31;;;;;;;2.85;0.75;;;14.00;99.90;;;;;;5012734;28;20534;-66
2022/05/18 12:26:59;;;;;;;2.25;0.35;;;13.90;99.90;;;;;;5020503;28;20057;-66
2022/05/18 12:29:28;;;;;;;2.60;0.20;;;13.90;99.90;;;;;;5021213;28;20392;-66
2022/05/18 12:31:58;;;;;;;2.42;0.20;;;13.90;99.90;;;;;;5027642;28;20100;-66
2022/05/18 12:34:45;;;;;;;1.02;0.50;;;13.80;99.90;;;;;;5019776;28;20033;-66
2022/05/18 12:37:15;;;;;;;1.73;0.60;;;13.80;99.90;;;;;;5015500;28;20394;-66
2022/05/18 12:39:47;;;;;;;1.23;0.40;;;13.60;99.90;;;;;;5015973;28;20030;-66
2022/05/18 12:42:24;;;;;;;3.05;0.30;;;13.70;99.90;;;;;;5011625;28;20482;-66
2022/05/18 12:44:56;;;;;;;2.10;0.28;;;13.60;99.90;;;;;;5017872;28;20021;-65
2022/05/18 12:47:27;;;;;;;1.98;0.57;;;13.70;99.90;;;;;;5017154;28;20038;-66
2022/05/18 12:50:07;;;;;;;2.58;1.00;;;13.60;99.90;;;;;;5014000;28;20018;-66
2022/05/18 12:52:54;;;;;;;2.40;1.05;;;13.70;99.90;;;;;;5028014;28;20128;-66
2022/05/18 12:56:04;;;;;;;2.40;0.90;;;13.70;99.90;;;;;;5028059;28;20105;-66
2022/05/18 12:58:43;;;;;;;1.70;0.40;;;13.70;99.90;;;;;;5022223;28;20028;-66
2022/05/18 13:01:17;;;;;;;1.77;0.77;;;13.60;99.90;;;;;;5021010;28;20029;-66
2022/05/18 13:04:08;;;;;;;1.95;0.35;;;13.60;99.90;;;;;;5018829;28;20034;-66
2022/05/18 13:06:42;;;;;;;0.73;0.28;;;13.60;99.90;;;;;;5016012;28;20084;-66
2022/05/18 13:09:34;;;;;;;2.60;0.50;;;13.50;99.90;;;;;;5017688;28;20030;-66
2022/05/18 13:12:24;;;;;;;0.65;0.30;;;13.60;99.90;;;;;;5020779;28;20028;-66
2022/05/18 13:15:07;;;;;;;0.65;0.30;;;13.50;99.90;;;;;;5020026;28;20037;-66
2022/05/18 13:18:11;;;;;;;0.63;0.28;;;13.50;99.90;;;;;;5019734;28;20026;-66
2022/05/18 13:21:05;;;;;;;2.13;0.30;;;13.40;99.90;;;;;;5018178;28;20041;-66
2022/05/18 13:23:32;;;;;;;1.88;0.70;;;13.40;99.90;;;;;;5023611;28;20049;-66
2022/05/18 13:26:02;;;;;;;2.47;0.28;;;13.30;99.90;;;;;;5020803;28;20452;-66
2022/05/18 13:28:33;;;;;;;3.15;0.30;;;13.30;99.90;;;;;;5026951;28;20052;-65
2022/05/18 13:31:02;;;;;;;1.45;0.40;;;13.40;99.90;;;;;;5026176;28;20014;-66
2022/05/18 13:33:50;;;;;;;1.50;0.20;;;13.40;99.90;;;;;;5022606;28;20733;-66
2022/05/18 13:36:34;;;;;;;0.70;0.10;;;13.30;99.90;;;;;;5018762;28;20064;-66
2022/05/18 13:39:07;;;;;;;3.97;0.25;;;13.30;99.90;;;;;;5029864;28;20033;-66